Time;durP1;ratioP1;P1;durP2;ratioP2;P2;SDS_P1;SDS_P2;PMS_P1;PMS_P2;Temp;Humidity;BMP_temperature;BMP_pressure;BME280_temperature;BME280_humidity;BME280_pressure;Samples;Min_cycle;Max_cycle;Signal;HPM_P1;HPM_P2
2022/12/17 13:06:42;;;;;;;36.10;11.70;;;-3.00;99.90;;;;;;4980371;28;20096;-68
2022/12/17 13:09:14;;;;;;;36.13;12.18;;;-2.90;99.90;;;;;;4978708;28;20026;-68
2022/12/17 13:11:42;;;;;;;31.45;10.90;;;-3.00;99.90;;;;;;4979390;28;20023;-68
2022/12/17 13:14:27;;;;;;;43.65;13.10;;;-2.80;99.90;;;;;;4977629;28;20080;-68
2022/12/17 13:17:28;;;;;;;37.72;13.32;;;-2.50;99.90;;;;;;4977100;28;20102;-67
2022/12/17 13:19:56;;;;;;;36.72;12.85;;;-2.30;99.90;;;;;;4975330;28;20046;-68
2022/12/17 13:22:22;;;;;;;43.75;14.57;;;-2.30;99.90;;;;;;4975897;28;20035;-67
2022/12/17 13:24:49;;;;;;;39.50;13.32;;;-2.50;99.90;;;;;;4975502;28;20026;-67
2022/12/17 13:27:33;;;;;;;44.05;13.48;;;-2.60;99.90;;;;;;4977152;28;20033;-67
2022/12/17 13:30:22;;;;;;;43.35;15.15;;;-2.70;99.90;;;;;;4975993;28;20023;-67
2022/12/17 13:33:06;;;;;;;41.67;12.35;;;-2.70;99.90;;;;;;4976970;28;20019;-67
2022/12/17 13:35:43;;;;;;;49.88;13.80;;;-2.70;99.90;;;;;;4976961;28;20031;-67
2022/12/17 13:38:36;;;;;;;39.33;12.88;;;-2.90;99.90;;;;;;4976749;28;20035;-67
2022/12/17 13:41:12;;;;;;;46.45;16.33;;;-2.80;99.90;;;;;;4976620;28;20030;-67
2022/12/17 13:43:42;;;;;;;37.90;13.45;;;-2.60;99.90;;;;;;4975270;28;20032;-67
2022/12/17 13:46:17;;;;;;;39.80;14.73;;;-2.50;99.90;;;;;;4975167;28;20033;-67
2022/12/17 13:48:50;;;;;;;46.40;13.50;;;-2.60;99.90;;;;;;4975309;28;20027;-67
2022/12/17 13:51:20;;;;;;;40.45;14.32;;;-2.70;99.90;;;;;;4976463;28;20094;-67
2022/12/17 13:53:56;;;;;;;42.42;13.43;;;-2.70;99.90;;;;;;4975044;28;20062;-67
2022/12/17 13:56:24;;;;;;;43.88;15.23;;;-2.70;99.90;;;;;;4974956;28;20077;-67
2022/12/17 13:58:51;;;;;;;46.10;14.98;;;-2.60;99.90;;;;;;4975336;28;20030;-67
2022/12/17 14:01:17;;;;;;;43.00;13.25;;;-2.80;99.90;;;;;;4974995;28;20097;-67
2022/12/17 14:03:51;;;;;;;38.28;13.10;;;-2.90;99.90;;;;;;4974956;28;20058;-67
2022/12/17 14:06:17;;;;;;;44.45;14.82;;;-2.80;99.90;;;;;;4976228;28;20110;-67
2022/12/17 14:08:44;;;;;;;41.10;13.90;;;-3.00;99.90;;;;;;4975098;28;20055;-67
2022/12/17 14:13:54;;;;;;;40.75;14.55;;;-2.70;99.90;;;;;;4976230;28;20038;-67
2022/12/17 14:16:20;;;;;;;42.03;12.35;;;-2.60;99.90;;;;;;4974492;28;20023;-67
2022/12/17 14:18:55;;;;;;;50.38;15.13;;;-2.80;99.90;;;;;;4974619;28;20463;-67
2022/12/17 14:21:21;;;;;;;41.65;14.93;;;-3.00;99.90;;;;;;4974617;28;20030;-67
2022/12/17 14:23:49;;;;;;;35.70;13.20;;;-3.00;99.90;;;;;;4974720;28;20026;-67
2022/12/17 14:26:15;;;;;;;47.33;15.80;;;-2.90;99.90;;;;;;4973928;28;20034;-67
2022/12/17 14:28:53;;;;;;;39.78;14.40;;;-2.80;99.90;;;;;;4975685;28;20073;-67
2022/12/17 14:31:28;;;;;;;47.55;14.02;;;-2.70;99.90;;;;;;4975722;28;20443;-67
2022/12/17 14:34:09;;;;;;;42.63;14.38;;;-2.50;99.90;;;;;;4974554;28;20030;-67
2022/12/17 14:36:38;;;;;;;45.38;13.25;;;-2.50;99.90;;;;;;4974407;28;20027;-67
2022/12/17 14:39:25;;;;;;;32.30;11.30;;;-2.30;99.90;;;;;;4974348;28;20097;-67
2022/12/17 14:44:47;;;;;;;37.95;12.98;;;-2.00;99.90;;;;;;4975831;28;20038;-67
2022/12/17 14:47:23;;;;;;;38.30;12.77;;;-2.20;99.90;;;;;;4975691;28;20025;-67
2022/12/17 14:50:11;;;;;;;32.75;11.43;;;-2.30;99.90;;;;;;4975625;28;20015;-67
2022/12/17 14:52:54;;;;;;;42.83;14.40;;;-2.30;99.90;;;;;;4975216;28;20041;-67
2022/12/17 14:55:26;;;;;;;36.58;13.10;;;-2.40;99.90;;;;;;4974175;28;20482;-67
2022/12/17 14:58:04;;;;;;;34.45;13.02;;;-2.40;99.90;;;;;;4973967;28;20027;-67
2022/12/17 15:00:30;;;;;;;41.85;14.40;;;-2.30;99.90;;;;;;4975360;28;20073;-67
2022/12/17 15:02:55;;;;;;;37.97;12.07;;;-2.30;99.90;;;;;;4973784;28;20030;-67
2022/12/17 15:05:21;;;;;;;37.03;13.05;;;-2.60;99.90;;;;;;4973750;28;20027;-67
2022/12/17 15:07:47;;;;;;;39.95;12.80;;;-2.90;99.90;;;;;;4973704;28;20025;-67
2022/12/17 15:10:17;;;;;;;47.80;12.82;;;-3.10;99.90;;;;;;4975209;28;20030;-67
2022/12/17 15:12:43;;;;;;;47.28;14.82;;;-3.30;99.90;;;;;;4973592;28;20033;-67
2022/12/17 15:15:15;;;;;;;37.92;13.07;;;-3.30;99.90;;;;;;4973637;28;20031;-67
2022/12/17 15:17:41;;;;;;;37.33;11.65;;;-3.30;99.90;;;;;;4973425;28;20030;-67
2022/12/17 15:20:15;;;;;;;43.22;12.90;;;-3.00;99.90;;;;;;4973992;28;20026;-67
2022/12/17 15:22:41;;;;;;;38.75;12.98;;;-2.90;99.90;;;;;;4974830;28;20034;-67
2022/12/17 15:25:11;;;;;;;36.78;12.50;;;-2.80;99.90;;;;;;4974881;28;20027;-67
2022/12/17 15:27:37;;;;;;;37.30;11.43;;;-2.70;99.90;;;;;;4974401;28;20019;-67
2022/12/17 15:30:02;;;;;;;33.35;11.32;;;-3.00;99.90;;;;;;4973642;28;20033;-67
2022/12/17 15:32:28;;;;;;;45.78;14.23;;;-3.00;99.90;;;;;;4973641;28;20052;-67
2022/12/17 15:34:54;;;;;;;43.67;14.07;;;-3.20;99.90;;;;;;4974661;28;20022;-67
2022/12/17 15:37:19;;;;;;;46.00;14.60;;;-3.30;99.90;;;;;;4973925;28;20574;-67
2022/12/17 15:39:45;;;;;;;37.63;13.07;;;-3.10;99.90;;;;;;4974798;28;20038;-67
2022/12/17 15:44:54;;;;;;;45.33;12.88;;;-3.00;99.90;;;;;;4974879;28;20041;-68
2022/12/17 15:47:20;;;;;;;41.83;11.27;;;-3.00;99.90;;;;;;4975597;28;20105;-67
2022/12/17 15:49:45;;;;;;;47.42;15.05;;;-3.00;99.90;;;;;;4973500;28;20030;-67
2022/12/17 15:52:14;;;;;;;40.58;14.68;;;-3.20;99.90;;;;;;4973689;28;20134;-67
2022/12/17 15:54:41;;;;;;;42.40;14.82;;;-3.20;99.90;;;;;;4973161;28;20062;-67
2022/12/17 15:57:06;;;;;;;38.58;14.02;;;-3.20;99.90;;;;;;4973282;28;20026;-67
2022/12/17 15:59:32;;;;;;;36.35;12.43;;;-3.20;99.90;;;;;;4974544;28;20081;-67
2022/12/17 16:01:58;;;;;;;45.00;13.60;;;-3.20;99.90;;;;;;4973673;28;20037;-67
2022/12/17 16:04:23;;;;;;;39.80;12.63;;;-3.10;99.90;;;;;;4972963;28;20034;-67
2022/12/17 16:06:49;;;;;;;44.35;12.95;;;-3.00;99.90;;;;;;4973235;28;20027;-67
2022/12/17 16:09:14;;;;;;;39.78;13.48;;;-3.00;99.90;;;;;;4973487;28;20107;-67
2022/12/17 16:11:40;;;;;;;38.78;12.93;;;-3.00;99.90;;;;;;4973102;28;20030;-67
2022/12/17 16:14:05;;;;;;;39.88;12.88;;;-2.80;99.90;;;;;;4974157;28;20034;-67
2022/12/17 16:16:31;;;;;;;38.28;12.98;;;-2.80;99.90;;;;;;4972860;28;20035;-67
2022/12/17 16:18:56;;;;;;;43.65;12.85;;;-3.10;99.90;;;;;;4974070;28;20027;-67
2022/12/17 16:21:22;;;;;;;48.20;14.77;;;-3.30;99.90;;;;;;4974112;28;20025;-67
2022/12/17 16:23:47;;;;;;;48.40;15.48;;;-3.50;99.90;;;;;;4973886;28;20046;-67
2022/12/17 16:26:13;;;;;;;48.78;14.60;;;-3.40;99.90;;;;;;4972670;28;20062;-67
2022/12/17 16:28:41;;;;;;;45.28;13.30;;;-3.30;99.90;;;;;;4972644;28;20030;-67
2022/12/17 16:31:10;;;;;;;37.30;12.68;;;-3.30;99.90;;;;;;4973990;28;20023;-67
2022/12/17 16:33:38;;;;;;;44.33;13.70;;;-3.00;99.90;;;;;;4974203;28;20117;-67
2022/12/17 16:36:05;;;;;;;39.65;13.18;;;-3.10;99.90;;;;;;4972825;28;20035;-67
2022/12/17 16:38:31;;;;;;;46.22;13.23;;;-3.10;99.90;;;;;;4973942;28;20027;-67
2022/12/17 16:40:59;;;;;;;46.22;14.93;;;-3.20;99.90;;;;;;4973239;28;20023;-67
2022/12/17 16:43:25;;;;;;;44.78;14.15;;;-3.20;99.90;;;;;;4974173;28;20038;-67
2022/12/17 16:45:52;;;;;;;50.70;17.52;;;-3.20;99.90;;;;;;4974262;28;20038;-67
2022/12/17 16:48:19;;;;;;;41.08;14.40;;;-3.30;99.90;;;;;;4974359;28;20470;-67
2022/12/17 16:50:45;;;;;;;41.80;13.25;;;-3.50;99.90;;;;;;4976795;28;20038;-67
2022/12/17 16:53:12;;;;;;;49.80;14.32;;;-3.40;99.90;;;;;;4977957;28;20027;-67
2022/12/17 16:56:17;;;;;;;47.95;14.65;;;-3.50;99.90;;;;;;4976219;28;20027;-67
2022/12/17 16:58:42;;;;;;;43.65;14.52;;;-3.50;99.90;;;;;;4976253;28;20026;-67
2022/12/17 17:01:09;;;;;;;46.55;13.15;;;-3.60;99.90;;;;;;4976120;28;20037;-68
2022/12/17 17:03:40;;;;;;;47.58;15.32;;;-3.60;99.90;;;;;;4977335;28;20026;-68
2022/12/17 17:06:06;;;;;;;46.78;15.68;;;-3.50;99.90;;;;;;4975951;28;20113;-69
2022/12/17 17:08:34;;;;;;;51.08;17.23;;;-3.30;99.90;;;;;;4975865;28;20049;-68
2022/12/17 17:11:26;;;;;;;47.17;14.52;;;-3.10;99.90;;;;;;4976121;28;20037;-68
2022/12/17 17:13:53;;;;;;;53.03;15.38;;;-3.30;99.90;;;;;;4974622;28;20039;-68
2022/12/17 17:16:21;;;;;;;53.63;14.98;;;-3.40;99.90;;;;;;4976947;28;20037;-68
2022/12/17 17:18:47;;;;;;;51.67;15.00;;;-3.20;99.90;;;;;;4988025;28;20035;-68
2022/12/17 17:21:18;;;;;;;50.75;16.48;;;-2.90;99.90;;;;;;4995148;28;20395;-68
2022/12/17 17:23:48;;;;;;;51.08;16.00;;;-2.90;99.90;;;;;;4996683;28;20379;-68
2022/12/17 17:26:15;;;;;;;51.88;14.68;;;-2.80;99.90;;;;;;4995130;28;20414;-68
2022/12/17 17:28:40;;;;;;;47.47;15.93;;;-2.70;99.90;;;;;;4995160;28;20034;-68
2022/12/17 17:31:10;;;;;;;49.53;16.63;;;-2.70;99.90;;;;;;4995064;28;20441;-68
2022/12/17 17:33:39;;;;;;;48.50;15.10;;;-2.70;99.90;;;;;;4995264;28;20026;-68
2022/12/17 17:36:11;;;;;;;48.47;15.30;;;-2.60;99.90;;;;;;4995734;28;20033;-68
2022/12/17 17:38:37;;;;;;;;;;;-2.60;99.90;;;;;;4995369;28;20034;-68
2022/12/17 17:41:04;;;;;;;59.75;16.17;;;-3.10;99.90;;;;;;4996720;28;19909;-68
2022/12/17 17:43:30;;;;;;;47.97;15.23;;;-3.50;99.90;;;;;;4996170;28;20030;-68
2022/12/17 17:46:06;;;;;;;49.72;16.42;;;-3.60;99.90;;;;;;4994977;28;20057;-68
2022/12/17 17:48:33;;;;;;;50.58;13.10;;;-3.60;99.90;;;;;;4994912;28;20058;-68
2022/12/17 17:51:01;;;;;;;45.97;15.07;;;-3.70;99.90;;;;;;4995923;28;20109;-68
2022/12/17 17:53:28;;;;;;;47.20;14.43;;;-3.80;99.90;;;;;;4994555;28;20029;-68
2022/12/17 17:55:53;;;;;;;47.63;14.60;;;-3.70;99.90;;;;;;4994668;28;20029;-68
2022/12/17 17:58:19;;;;;;;52.08;15.38;;;-3.80;99.90;;;;;;4996200;28;20031;-68
2022/12/17 18:00:45;;;;;;;44.95;14.88;;;-4.00;99.90;;;;;;4993677;28;20034;-68
2022/12/17 18:03:11;;;;;;;52.03;15.90;;;-4.10;99.90;;;;;;4995648;28;20030;-68
2022/12/17 18:05:37;;;;;;;50.70;16.88;;;-4.20;99.90;;;;;;4994581;28;20034;-68
2022/12/17 18:08:03;;;;;;;50.20;15.50;;;-4.30;99.90;;;;;;4994425;28;20023;-68
2022/12/17 18:10:29;;;;;;;46.85;16.30;;;-4.30;99.90;;;;;;4994493;28;20022;-68
2022/12/17 18:15:38;;;;;;;53.33;15.70;;;-4.30;99.90;;;;;;4995670;28;20033;-68
2022/12/17 18:18:04;;;;;;;48.13;15.07;;;-4.40;99.90;;;;;;4994445;28;20034;-68
2022/12/17 18:20:29;;;;;;;54.10;15.45;;;-4.30;99.90;;;;;;4995299;28;20030;-68
2022/12/17 18:22:55;;;;;;;53.22;15.93;;;-4.40;99.90;;;;;;4994782;28;20037;-68
2022/12/17 18:25:20;;;;;;;56.92;15.82;;;-4.50;99.90;;;;;;4994391;28;20036;-68
2022/12/17 18:27:46;;;;;;;52.25;15.02;;;-4.50;99.90;;;;;;4993940;28;20033;-68
2022/12/17 18:30:13;;;;;;;56.97;14.73;;;-4.40;99.90;;;;;;4993934;28;20026;-68
2022/12/17 18:32:38;;;;;;;51.38;14.57;;;-4.20;99.90;;;;;;4995295;28;20021;-68
2022/12/17 18:35:04;;;;;;;42.53;13.85;;;-4.40;99.90;;;;;;4994400;28;20026;-68
2022/12/17 18:37:30;;;;;;;50.22;13.43;;;-4.40;99.90;;;;;;4994901;28;20061;-68
2022/12/17 18:39:55;;;;;;;46.10;13.52;;;-4.60;99.90;;;;;;4994591;28;20038;-68
2022/12/17 18:45:05;;;;;;;48.30;14.75;;;-4.60;99.90;;;;;;4995449;28;20049;-68
2022/12/17 18:47:31;;;;;;;46.22;13.30;;;-4.60;99.90;;;;;;4995905;28;20044;-68
2022/12/17 18:49:56;;;;;;;51.15;13.75;;;-4.70;99.90;;;;;;4994273;28;20025;-68
2022/12/17 18:52:22;;;;;;;60.17;17.02;;;-4.70;99.90;;;;;;4993853;28;20022;-68
2022/12/17 18:54:48;;;;;;;47.88;14.98;;;-4.80;99.90;;;;;;4993581;28;20113;-68
2022/12/17 18:57:13;;;;;;;64.13;15.48;;;-4.70;99.90;;;;;;4993476;28;20096;-68
2022/12/17 18:59:39;;;;;;;46.95;15.02;;;-4.70;99.90;;;;;;4994000;28;20022;-68
2022/12/17 19:02:08;;;;;;;43.65;16.02;;;-4.70;99.90;;;;;;4993689;28;20027;-68
2022/12/17 19:04:34;;;;;;;52.50;15.23;;;-4.70;99.90;;;;;;4993316;28;20093;-68
2022/12/17 19:06:59;;;;;;;61.58;16.23;;;-4.70;99.90;;;;;;4994478;28;20022;-68
2022/12/17 19:09:29;;;;;;;58.88;15.23;;;-4.70;99.90;;;;;;4994851;28;20023;-68
2022/12/17 19:11:56;;;;;;;50.90;15.50;;;-4.70;99.90;;;;;;4993983;28;20015;-68
2022/12/17 19:14:22;;;;;;;49.90;15.45;;;-4.80;99.90;;;;;;4994686;28;20029;-68
2022/12/17 19:16:50;;;;;;;47.58;15.55;;;-4.60;99.90;;;;;;4994375;28;20033;-68
2022/12/17 19:19:16;;;;;;;50.97;16.40;;;-4.50;99.90;;;;;;4994348;28;20073;-68
2022/12/17 19:21:42;;;;;;;57.95;17.20;;;-4.60;99.90;;;;;;4992978;28;20030;-68
2022/12/17 19:24:14;;;;;;;46.70;15.30;;;-4.50;99.90;;;;;;4994559;28;20026;-68
2022/12/17 19:26:40;;;;;;;57.15;16.88;;;-4.40;99.90;;;;;;4994199;28;20049;-68
2022/12/17 19:29:07;;;;;;;56.95;16.25;;;-4.40;99.90;;;;;;4992813;28;20484;-68
2022/12/17 19:31:34;;;;;;;53.88;16.73;;;-4.60;99.90;;;;;;4994038;28;20018;-68
2022/12/17 19:34:04;;;;;;;54.78;16.05;;;-4.70;99.90;;;;;;4992807;28;20037;-68
2022/12/17 19:36:32;;;;;;;38.70;14.57;;;-4.60;99.90;;;;;;4993319;28;20022;-67
2022/12/17 19:39:01;;;;;;;57.00;16.88;;;-4.60;99.90;;;;;;4993984;28;20026;-67
2022/12/17 19:41:27;;;;;;;44.25;15.43;;;-4.60;99.90;;;;;;4992603;28;20027;-67
2022/12/17 19:43:55;;;;;;;44.60;12.95;;;-4.20;99.90;;;;;;4992557;28;20049;-67
2022/12/17 19:46:22;;;;;;;47.67;14.93;;;-4.10;99.90;;;;;;4993933;28;20367;-67
2022/12/17 19:48:48;;;;;;;47.60;15.48;;;-4.00;99.90;;;;;;4992517;28;20080;-67
2022/12/17 19:51:16;;;;;;;68.15;24.73;;;-4.20;99.90;;;;;;4992582;28;20057;-67
2022/12/17 19:53:43;;;;;;;61.25;18.00;;;-4.40;99.90;;;;;;4992743;28;20021;-68
2022/12/17 19:56:23;;;;;;;65.22;16.83;;;-4.60;99.90;;;;;;4992673;28;20038;-67
2022/12/17 19:58:52;;;;;;;62.10;16.13;;;-4.70;99.90;;;;;;4992526;28;20022;-67
2022/12/17 20:01:20;;;;;;;53.83;16.00;;;-4.70;99.90;;;;;;4993441;28;20026;-67
2022/12/17 20:03:46;;;;;;;49.40;15.95;;;-4.70;99.90;;;;;;4993839;28;20165;-67
2022/12/17 20:06:14;;;;;;;71.70;19.05;;;-4.60;99.90;;;;;;4992653;28;20053;-67
2022/12/17 20:08:41;;;;;;;57.75;17.70;;;-4.50;99.90;;;;;;4992306;28;20448;-68
2022/12/17 20:13:59;;;;;;;57.33;15.48;;;-4.50;99.90;;;;;;4993948;28;20054;-68
2022/12/17 20:16:26;;;;;;;49.15;15.07;;;-4.60;99.90;;;;;;4993616;28;20028;-68
2022/12/17 20:18:52;;;;;;;61.28;16.50;;;-4.70;99.90;;;;;;4992686;28;20034;-68
2022/12/17 20:21:18;;;;;;;60.33;16.92;;;-4.50;99.90;;;;;;4992492;28;20029;-68
2022/12/17 20:23:48;;;;;;;54.88;14.93;;;-4.40;99.90;;;;;;4993300;28;20037;-68
2022/12/17 20:26:15;;;;;;;55.80;16.73;;;-4.30;99.90;;;;;;4997524;28;20095;-68
2022/12/17 20:28:40;;;;;;;60.63;17.98;;;-4.10;99.90;;;;;;4996186;28;20026;-68
2022/12/17 20:31:07;;;;;;;51.38;14.50;;;-4.00;99.90;;;;;;4996246;28;20033;-68
2022/12/17 20:33:33;;;;;;;56.70;16.83;;;-4.10;99.90;;;;;;4996072;28;20030;-68
2022/12/17 20:36:09;;;;;;;52.25;15.35;;;-4.00;99.90;;;;;;4997653;28;20026;-68
2022/12/17 20:38:36;;;;;;;44.92;14.48;;;-3.80;99.90;;;;;;4997331;28;20030;-68
2022/12/17 20:41:17;;;;;;;51.33;15.02;;;-3.80;99.90;;;;;;4996883;28;20035;-68
2022/12/17 20:43:43;;;;;;;53.73;14.77;;;-3.90;99.90;;;;;;4996968;28;20057;-68
2022/12/17 20:46:09;;;;;;;45.33;14.10;;;-4.00;99.90;;;;;;4996409;28;20328;-68
2022/12/17 20:48:39;;;;;;;53.80;15.35;;;-4.00;99.90;;;;;;4995839;28;20478;-68
2022/12/17 20:51:09;;;;;;;59.58;15.95;;;-4.20;99.90;;;;;;4997111;28;20022;-68
2022/12/17 20:53:35;;;;;;;56.05;15.60;;;-4.40;99.90;;;;;;4996977;28;20026;-68
2022/12/17 20:56:12;;;;;;;55.58;16.15;;;-4.30;99.90;;;;;;4995857;28;20474;-68
2022/12/17 20:58:38;;;;;;;59.40;16.30;;;-4.30;99.90;;;;;;4996727;28;20117;-68
2022/12/17 21:01:13;;;;;;;64.78;18.88;;;-4.00;99.90;;;;;;4997810;28;20069;-68
2022/12/17 21:03:40;;;;;;;55.15;15.95;;;-4.00;99.90;;;;;;4996776;28;20046;-68
2022/12/17 21:06:12;;;;;;;49.63;14.88;;;-4.00;99.90;;;;;;4997040;28;20038;-68
2022/12/17 21:08:39;;;;;;;52.97;15.95;;;-3.90;99.90;;;;;;4996307;28;20049;-68
2022/12/17 21:11:06;;;;;;;58.85;17.08;;;-3.70;99.90;;;;;;4995879;28;20023;-68
2022/12/17 21:13:32;;;;;;;59.72;17.08;;;-3.80;99.90;;;;;;4996813;28;20018;-68
2022/12/17 21:16:00;;;;;;;59.65;17.83;;;-3.80;99.90;;;;;;4996770;28;20041;-68
2022/12/17 21:18:28;;;;;;;60.65;18.95;;;-3.80;99.90;;;;;;4996036;28;20081;-68
2022/12/17 21:20:59;;;;;;;47.63;15.75;;;-3.70;99.90;;;;;;4995442;28;20023;-68
2022/12/17 21:23:26;;;;;;;53.88;16.45;;;-3.90;99.90;;;;;;4996236;28;20044;-68
2022/12/17 21:26:01;;;;;;;63.25;16.75;;;-4.10;99.90;;;;;;4995375;28;20034;-68
2022/12/17 21:28:27;;;;;;;61.92;17.58;;;-4.10;99.90;;;;;;4995423;28;20030;-67
2022/12/17 21:30:53;;;;;;;68.82;18.48;;;-4.20;99.90;;;;;;4996319;28;20023;-67
2022/12/17 21:33:19;;;;;;;61.03;18.80;;;-4.40;99.90;;;;;;4995019;28;20026;-67
2022/12/17 21:35:44;;;;;;;54.60;17.15;;;-4.60;99.90;;;;;;4993748;28;20494;-68
2022/12/17 21:38:10;;;;;;;61.40;19.15;;;-4.70;99.90;;;;;;4995022;28;20023;-67
2022/12/17 21:40:35;;;;;;;65.63;19.63;;;-4.60;99.90;;;;;;4994926;28;20026;-67
2022/12/17 21:43:01;;;;;;;59.78;17.20;;;-4.70;99.90;;;;;;4994714;28;20045;-67
2022/12/17 21:45:32;;;;;;;58.55;15.38;;;-4.50;99.90;;;;;;4994672;28;20030;-67
2022/12/17 21:47:57;;;;;;;52.88;16.23;;;-4.60;99.90;;;;;;4995470;28;20086;-67
2022/12/17 21:50:23;;;;;;;62.33;16.95;;;-4.40;99.90;;;;;;4994786;28;20081;-67
2022/12/17 21:52:48;;;;;;;61.20;16.45;;;-4.30;99.90;;;;;;4995920;28;20474;-67
2022/12/17 21:55:14;;;;;;;54.40;16.33;;;-4.20;99.90;;;;;;4994544;28;20053;-67
2022/12/17 21:57:40;;;;;;;54.60;13.70;;;-4.00;99.90;;;;;;4994629;28;20117;-67
2022/12/17 22:00:06;;;;;;;43.35;14.68;;;-3.90;99.90;;;;;;4994592;28;20037;-67
2022/12/17 22:02:31;;;;;;;55.72;15.95;;;-4.00;99.90;;;;;;4994492;28;20026;-67
2022/12/17 22:04:57;;;;;;;54.40;14.57;;;-3.90;99.90;;;;;;4994863;28;20077;-67
2022/12/17 22:07:22;;;;;;;47.75;14.55;;;-3.70;99.90;;;;;;4996138;28;20033;-67
2022/12/17 22:09:48;;;;;;;54.08;15.80;;;-4.10;99.90;;;;;;4995608;28;20022;-67
2022/12/17 22:14:58;;;;;;;46.78;13.82;;;-4.50;99.90;;;;;;4995790;28;20113;-67
2022/12/17 22:17:23;;;;;;;46.10;14.70;;;-4.30;99.90;;;;;;4994604;28;20054;-67
2022/12/17 22:19:49;;;;;;;47.88;14.65;;;-4.40;99.90;;;;;;4994245;28;20046;-67
2022/12/17 22:22:14;;;;;;;50.78;14.60;;;-4.60;99.90;;;;;;4994100;28;20516;-67
2022/12/17 22:24:40;;;;;;;54.35;14.55;;;-4.70;99.90;;;;;;4994066;28;20057;-67
2022/12/17 22:27:05;;;;;;;44.28;13.13;;;-4.60;99.90;;;;;;4994088;28;20050;-67
2022/12/17 22:34:59;;;;;;;41.42;12.63;;;-4.00;99.90;;;;;;4995518;28;20041;-67
2022/12/17 22:37:24;;;;;;;44.53;12.70;;;-3.90;99.90;;;;;;4994333;28;20034;-67
2022/12/17 22:39:50;;;;;;;41.28;12.02;;;-4.00;99.90;;;;;;4993785;28;20501;-67
2022/12/17 22:45:02;;;;;;;37.03;11.45;;;-3.80;99.90;;;;;;4995168;28;20084;-67
2022/12/17 22:47:27;;;;;;;42.15;13.18;;;-3.80;99.90;;;;;;4993380;28;20019;-69
2022/12/17 22:49:53;;;;;;;43.25;13.88;;;-3.90;99.90;;;;;;4993910;28;20099;-68
2022/12/17 22:52:18;;;;;;;40.45;12.15;;;-4.10;99.90;;;;;;4995550;28;20073;-67
2022/12/17 22:54:44;;;;;;;40.58;11.82;;;-4.00;99.90;;;;;;4995752;28;20109;-67
2022/12/17 22:57:09;;;;;;;39.75;13.02;;;-4.00;99.90;;;;;;4993742;28;20026;-67
2022/12/17 22:59:35;;;;;;;42.10;13.32;;;-3.90;99.90;;;;;;4994244;28;20033;-67
2022/12/17 23:02:01;;;;;;;44.22;14.75;;;-3.80;99.90;;;;;;4994247;28;20034;-67
2022/12/17 23:04:26;;;;;;;38.25;13.00;;;-3.80;99.90;;;;;;4995238;28;20035;-67
2022/12/17 23:06:52;;;;;;;41.25;14.05;;;-3.80;99.90;;;;;;4995506;28;20104;-67
2022/12/17 23:09:18;;;;;;;44.75;13.15;;;-3.80;99.90;;;;;;4996227;28;20026;-67
2022/12/17 23:11:45;;;;;;;37.92;14.38;;;-4.20;99.90;;;;;;4996307;28;20073;-67
2022/12/17 23:14:10;;;;;;;41.42;12.90;;;-4.20;99.90;;;;;;4995869;28;20038;-67
2022/12/17 23:16:37;;;;;;;40.35;12.45;;;-4.20;99.90;;;;;;4994067;28;20030;-67
2022/12/17 23:19:03;;;;;;;46.20;13.20;;;-4.10;99.90;;;;;;4994805;28;20031;-67
2022/12/17 23:21:29;;;;;;;44.08;12.68;;;-4.00;99.90;;;;;;4994439;28;20026;-67
2022/12/17 23:24:00;;;;;;;41.15;12.45;;;-4.10;99.90;;;;;;4995338;28;20494;-68
2022/12/17 23:26:31;;;;;;;40.07;13.80;;;-4.40;99.90;;;;;;4994974;28;20093;-67
2022/12/17 23:28:59;;;;;;;45.38;13.10;;;-4.60;99.90;;;;;;4994227;28;20026;-67
2022/12/17 23:31:27;;;;;;;47.50;12.80;;;-5.00;99.90;;;;;;4992948;28;20034;-67
2022/12/17 23:33:54;;;;;;;40.17;13.15;;;-5.00;99.90;;;;;;4992901;28;20022;-67
2022/12/17 23:36:24;;;;;;;45.67;13.65;;;-5.10;99.90;;;;;;4994582;28;20037;-67
2022/12/17 23:38:50;;;;;;;45.00;13.32;;;-4.90;99.90;;;;;;4994874;28;20029;-67
2022/12/17 23:41:18;;;;;;;43.65;13.45;;;-4.90;99.90;;;;;;4993055;28;20045;-67
2022/12/17 23:43:44;;;;;;;48.22;13.52;;;-4.90;99.90;;;;;;4994283;28;20084;-68
2022/12/17 23:46:16;;;;;;;44.17;11.90;;;-4.90;99.90;;;;;;4993075;28;20124;-68
2022/12/17 23:48:44;;;;;;;54.33;15.20;;;-4.70;99.90;;;;;;4993752;28;20425;-68
2022/12/17 23:51:10;;;;;;;48.15;14.23;;;-4.50;99.90;;;;;;4996145;28;20050;-68
2022/12/17 23:53:37;;;;;;;51.20;13.48;;;-4.40;99.90;;;;;;4994473;28;20053;-68
2022/12/17 23:56:10;;;;;;;44.65;13.90;;;-4.60;99.90;;;;;;4994905;28;20054;-67
2022/12/17 23:58:37;;;;;;;41.70;13.27;;;-4.60;99.90;;;;;;4993809;28;20030;-67
